SIO551 LIML-EGLF
Flight info
| Callsign | SIO551 |
|---|---|
| Flight time | N/A |
| Altitude | 38000 |
| Route | PEPAG DCT PUNSA DCT IBODI DCT GOTED DCT TRO DCT CLM DCT KOPOR DCT SOSUN DCT SUBIP UM8 ELDAX |
| Aircraft | GLF5/M-SFGHIRWXY/S |
Departure
| Time | N/A |
|---|---|
| Airport | Milano Linate Airport (LIML) |
Arrival
| Time | 2026-04-25 17:10 |
|---|---|
| Airport | Farnborough Airport (EGLF) |
| Time | Latitude | Longitude | Altitude | Speed | Heading |
|---|---|---|---|---|---|
| 2026-04-25 16:56 | 50.79322 | -0.66748 | 7981 ft | 235 kts | 331° |
| 2026-04-25 16:56 | 50.80524 | -0.67771 | 7676 ft | 234 kts | 331° |
| 2026-04-25 16:57 | 50.82004 | -0.69033 | 7330 ft | 233 kts | 331° |
| 2026-04-25 16:57 | 50.82478 | -0.69437 | 7354 ft | 233 kts | 331° |
| 2026-04-25 16:57 | 50.84898 | -0.71500 | 7293 ft | 233 kts | 331° |
| 2026-04-25 16:57 | 50.86336 | -0.72692 | 7296 ft | 232 kts | 337° |
| 2026-04-25 16:58 | 50.87878 | -0.73493 | 7211 ft | 237 kts | 343° |
| 2026-04-25 16:58 | 50.89451 | -0.74240 | 6871 ft | 237 kts | 343° |
| 2026-04-25 16:58 | 50.91029 | -0.74996 | 6591 ft | 236 kts | 343° |
| 2026-04-25 16:58 | 50.92592 | -0.75748 | 6350 ft | 234 kts | 343° |
| 2026-04-25 16:59 | 50.94144 | -0.76495 | 6086 ft | 232 kts | 343° |
| 2026-04-25 16:59 | 50.95681 | -0.77236 | 5831 ft | 230 kts | 343° |
| 2026-04-25 16:59 | 50.97197 | -0.77968 | 5635 ft | 227 kts | 343° |
| 2026-04-25 16:59 | 50.98717 | -0.78702 | 5423 ft | 226 kts | 343° |
| 2026-04-25 17:00 | 51.00215 | -0.79426 | 5198 ft | 226 kts | 343° |
| 2026-04-25 17:00 | 51.01742 | -0.79833 | 4995 ft | 223 kts | 5° |
| 2026-04-25 17:00 | 51.03273 | -0.79504 | 4865 ft | 217 kts | 9° |
| 2026-04-25 17:00 | 51.04732 | -0.79164 | 4731 ft | 209 kts | 9° |
| 2026-04-25 17:01 | 51.06178 | -0.78825 | 4512 ft | 208 kts | 9° |
| 2026-04-25 17:01 | 51.07598 | -0.78494 | 4327 ft | 206 kts | 9° |
| 2026-04-25 17:01 | 51.09006 | -0.78141 | 4175 ft | 206 kts | 12° |
| 2026-04-25 17:01 | 51.10421 | -0.77697 | 4028 ft | 204 kts | 12° |
| 2026-04-25 17:02 | 51.11628 | -0.77317 | 4008 ft | 204 kts | 12° |
| 2026-04-25 17:02 | 51.13060 | -0.76870 | 3957 ft | 206 kts | 12° |
| 2026-04-25 17:02 | 51.14419 | -0.76380 | 3907 ft | 204 kts | 17° |
| 2026-04-25 17:02 | 51.15339 | -0.75955 | 3909 ft | 203 kts | 17° |
| 2026-04-25 17:03 | 51.17120 | -0.75129 | 3905 ft | 203 kts | 18° |
| 2026-04-25 17:03 | 51.18183 | -0.73982 | 3891 ft | 187 kts | 52° |
| 2026-04-25 17:03 | 51.18932 | -0.72296 | 3903 ft | 187 kts | 55° |
| 2026-04-25 17:03 | 51.19670 | -0.70571 | 3751 ft | 187 kts | 56° |
| 2026-04-25 17:04 | 51.20396 | -0.68856 | 3592 ft | 187 kts | 56° |
| 2026-04-25 17:04 | 51.21116 | -0.67149 | 3435 ft | 185 kts | 56° |
| 2026-04-25 17:04 | 51.21842 | -0.65424 | 3276 ft | 185 kts | 56° |
| 2026-04-25 17:04 | 51.22514 | -0.63823 | 3126 ft | 184 kts | 56° |
| 2026-04-25 17:05 | 51.23187 | -0.62220 | 3010 ft | 184 kts | 56° |
| 2026-04-25 17:05 | 51.24642 | -0.58829 | 3007 ft | 184 kts | 55° |
| 2026-04-25 17:05 | 51.25370 | -0.57144 | 3006 ft | 185 kts | 55° |
| 2026-04-25 17:06 | 51.26259 | -0.55667 | 2969 ft | 186 kts | 26° |
| 2026-04-25 17:06 | 51.27500 | -0.55497 | 2844 ft | 185 kts | 343° |
| 2026-04-25 17:06 | 51.28619 | -0.56490 | 2672 ft | 185 kts | 328° |
| 2026-04-25 17:06 | 51.29708 | -0.57635 | 2404 ft | 185 kts | 327° |
| 2026-04-25 17:07 | 51.30771 | -0.58767 | 2145 ft | 184 kts | 327° |
| 2026-04-25 17:07 | 51.31826 | -0.59898 | 2005 ft | 180 kts | 327° |
| 2026-04-25 17:07 | 51.32659 | -0.61270 | 1991 ft | 173 kts | 292° |
| 2026-04-25 17:07 | 51.32680 | -0.63136 | 2044 ft | 168 kts | 248° |
| 2026-04-25 17:08 | 51.32031 | -0.64670 | 2018 ft | 165 kts | 233° |
| 2026-04-25 17:08 | 51.31418 | -0.66201 | 2003 ft | 162 kts | 239° |
| 2026-04-25 17:08 | 51.30866 | -0.67780 | 1797 ft | 164 kts | 241° |
| 2026-04-25 17:08 | 51.30346 | -0.69328 | 1535 ft | 154 kts | 241° |
| 2026-04-25 17:09 | 51.29857 | -0.70797 | 1292 ft | 142 kts | 241° |
| 2026-04-25 17:09 | 51.29401 | -0.72168 | 1070 ft | 138 kts | 241° |
| 2026-04-25 17:09 | 51.28949 | -0.73525 | 832 ft | 137 kts | 241° |
| 2026-04-25 17:09 | 51.28520 | -0.74817 | 531 ft | 129 kts | 241° |
| 2026-04-25 17:10 | 51.28092 | -0.76089 | 317 ft | 130 kts | 240° |
| 2026-04-25 17:10 | 51.27690 | -0.77291 | 241 ft | 107 kts | 242° |
| 2026-04-25 17:10 | 51.27428 | -0.78085 | 241 ft | 53 kts | 241° |
| 2026-04-25 17:10 | 51.27317 | -0.78421 | 241 ft | 27 kts | 244° |
| 2026-04-25 17:11 | 51.27251 | -0.78685 | 241 ft | 22 kts | 293° |
| 2026-04-25 17:11 | 51.27336 | -0.78688 | 241 ft | 21 kts | 44° |